Kyoto, Japan

4:55 PM JST on August 30, 2015 (GMT +0900)
Kyoto | | Change Station
CLOSE
Current Station
Personal Weather Station
Location: Kyoto, KYOTO
Elevation: 115 ft
Nearby Weather Stations

Elev 115 ft 34.93 °N, 135.76 °E | Updated 5 minutes ago

Mostly Cloudy
Mostly Cloudy
78.9 °F
Feels Like 82 °F
N
0.0
Wind Variable Wind from South

Today
High -- | Low -- °F
--% Chance of Precip.
Yesterday
High -- | Low -- °F
Precip. -- in
5:27 AM 6:27 PM
Full, 100% visible
Pressure 29.80 in
Visibility 6.2 miles
Clouds Few 1000 ft
Scattered Clouds 3000 ft
Mostly Cloudy 8000 ft
Heat Index 82 °F
Dew Point 74 °F
Humidity 84%
Rainfall Not available.
Snow Depth Not available.
UV 0.0 out of 12
Pollen Not available.
Air Quality Not available.
Flu Activity Not available.
METAR RJOO 300700Z 21005KT 160V250 9999 VCSH FEW010 SCT030 BKN080 27/22 Q1009 RMK 1ST010 3CU030 5AC080 A2980
Pressure 29.80 in
Visibility 6.2 miles
Clouds Few 1000 ft
Scattered Clouds 3000 ft
Mostly Cloudy 8000 ft
Heat Index 82 °F
Dew Point 74 °F
Humidity 84%
Rainfall Not available.
Snow Depth Not available.
UV 0.0 out of 12
Pollen Not available.
Air Quality Not available.
Flu Activity Not available.
METAR RJOO 300700Z 21005KT 160V250 9999 VCSH FEW010 SCT030 BKN080 27/22 Q1009 RMK 1ST010 3CU030 5AC080 A2980

10-Day Weather Forecast

×

Almanac

Astronomy

Aug. 30, 2015 Rise Set
Actual Time
Civil Twilight
Nautical Twilight
Astronomical Twilight
Moon
Length of Visible Light
Length of Day
Tomorrow will be .
, % of the Moon is Illuminated

Today's Extremes

Country Highs Country Lows

Community

WunderPhotos

Upload Photos

1,850,904 photos uploaded!

WunderBlogs® & News

Nearby

Air Quality

  Air Quality AQ Index Pollutant
Not available.

Snow Depth

Station Depth Elevation

Earthquake Activity

City Distance Mag. Time & Date
Minimum magnitude displayed is 2.5.

Coastal Water Temperatures

Place Temperature

Stations

Nearby Weather Stations

Station Location Temp. Windchill Dew Point Humidity Wind Precip. Elev Updated Type